createdAt,value
2022-10-11T00:00:54.699Z,67.60
2022-10-11T00:03:34.888Z,67.65
2022-10-11T00:06:17.465Z,67.62
2022-10-11T00:08:46.349Z,67.72
2022-10-11T00:11:28.848Z,67.87
2022-10-11T00:13:57.791Z,67.88
2022-10-11T00:16:26.840Z,67.85
2022-10-11T00:18:55.951Z,67.88
2022-10-11T00:21:25.425Z,68.20
2022-10-11T00:24:08.022Z,68.15
2022-10-11T00:26:36.782Z,68.10
2022-10-11T00:29:06.311Z,68.07
2022-10-11T00:31:35.934Z,67.87
2022-10-11T00:34:06.054Z,68.26
2022-10-11T00:36:35.020Z,68.21
2022-10-11T00:39:05.283Z,68.13
2022-10-11T00:41:34.292Z,68.21
2022-10-11T00:44:25.905Z,68.38
2022-10-11T00:47:12.941Z,68.61
2022-10-11T00:50:01.699Z,68.32
2022-10-11T00:52:35.552Z,68.53
2022-10-11T00:55:15.293Z,68.77
2022-10-11T00:57:59.198Z,68.50
2022-10-11T01:00:41.699Z,69.06
2022-10-11T01:03:27.494Z,69.12
2022-10-11T01:05:57.720Z,68.98
2022-10-11T01:08:40.138Z,69.09
2022-10-11T01:11:15.173Z,69.11
2022-10-11T01:14:03.145Z,69.23
2022-10-11T01:17:03.703Z,69.56
2022-10-11T01:20:23.961Z,69.42
2022-10-11T01:23:27.252Z,69.59
2022-10-11T01:26:27.000Z,69.48
2022-10-11T01:29:50.145Z,69.80
2022-10-11T01:32:33.596Z,69.94
2022-10-11T01:35:40.215Z,69.68
2022-10-11T01:39:17.143Z,69.98
2022-10-11T01:41:56.563Z,69.87
2022-10-11T01:44:41.813Z,70.07
2022-10-11T01:47:25.561Z,70.06
2022-10-11T01:50:47.264Z,70.22
2022-10-11T01:53:39.093Z,70.18
2022-10-11T01:56:40.451Z,70.22
2022-10-11T01:59:29.708Z,70.38
2022-10-11T02:02:23.638Z,70.25
2022-10-11T02:05:38.349Z,70.46
2022-10-11T02:08:45.511Z,70.23
2022-10-11T02:11:34.720Z,70.11
2022-10-11T02:14:11.917Z,70.33
2022-10-11T02:16:54.791Z,70.50
2022-10-11T02:19:48.573Z,70.46
2022-10-11T02:22:37.426Z,70.43
2022-10-11T02:25:10.946Z,70.64
2022-10-11T02:27:43.989Z,70.65
2022-10-11T02:30:26.607Z,70.64
2022-10-11T02:32:57.992Z,70.65
2022-10-11T02:35:30.229Z,70.90
2022-10-11T02:38:31.635Z,70.86
2022-10-11T02:41:27.744Z,70.87
2022-10-11T02:44:16.223Z,71.14
2022-10-11T02:47:01.109Z,71.20
2022-10-11T02:49:32.048Z,71.15
2022-10-11T02:52:00.893Z,71.35
2022-10-11T02:54:43.308Z,71.30
2022-10-11T02:57:25.910Z,71.62
2022-10-11T02:59:54.819Z,71.56
2022-10-11T03:02:23.791Z,71.52
2022-10-11T03:04:52.792Z,71.61
2022-10-11T03:07:35.257Z,71.81
2022-10-11T03:10:17.831Z,71.82
2022-10-11T03:12:46.924Z,71.98
2022-10-11T03:15:15.983Z,72.02
2022-10-11T03:17:44.999Z,72.07
2022-10-11T03:20:28.155Z,72.19
2022-10-11T03:22:57.057Z,72.21
2022-10-11T03:25:25.962Z,72.29
2022-10-11T03:27:54.947Z,72.19
2022-10-11T03:30:24.317Z,72.64
2022-10-11T03:32:53.374Z,72.56
2022-10-11T03:35:22.504Z,72.70
2022-10-11T03:38:05.011Z,72.95
2022-10-11T03:40:47.785Z,72.86
2022-10-11T03:43:16.931Z,73.05
2022-10-11T03:45:45.995Z,72.94
2022-10-11T03:48:28.542Z,73.09
2022-10-11T03:50:57.601Z,72.97
2022-10-11T03:53:26.389Z,72.87
2022-10-11T03:56:10.051Z,73.58
2022-10-11T03:58:52.594Z,73.52
2022-10-11T04:01:21.650Z,73.72
2022-10-11T04:03:50.565Z,73.61
2022-10-11T04:06:19.559Z,73.58
2022-10-11T04:09:02.294Z,73.42
2022-10-11T04:11:31.225Z,73.70
2022-10-11T04:14:00.279Z,73.85
2022-10-11T04:16:43.242Z,73.78
2022-10-11T04:19:12.518Z,73.96
2022-10-11T04:21:41.365Z,73.97
2022-10-11T04:24:12.193Z,74.08
2022-10-11T04:26:54.869Z,74.14
2022-10-11T04:29:27.717Z,74.54
2022-10-11T04:32:14.072Z,74.45
2022-10-11T04:34:43.330Z,74.68
2022-10-11T04:37:12.265Z,74.61
2022-10-11T04:39:41.394Z,74.54
2022-10-11T04:42:10.232Z,74.70
2022-10-11T04:44:52.679Z,74.48
2022-10-11T04:47:21.603Z,74.37
2022-10-11T04:49:50.665Z,74.71
2022-10-11T04:52:32.977Z,74.61
2022-10-11T04:55:16.032Z,75.15
2022-10-11T04:57:45.028Z,75.03
2022-10-11T05:00:15.466Z,75.03
2022-10-11T05:02:44.348Z,75.02
2022-10-11T05:05:18.012Z,75.12
2022-10-11T05:08:01.099Z,74.87
2022-10-11T05:10:29.735Z,74.86
2022-10-11T05:12:58.896Z,74.91
2022-10-11T05:15:41.724Z,75.08
2022-10-11T05:18:10.424Z,75.15
2022-10-11T05:20:39.483Z,75.15
2022-10-11T05:23:08.922Z,75.26
2022-10-11T05:25:37.928Z,75.24
2022-10-11T05:28:07.331Z,75.31
2022-10-11T05:30:50.153Z,75.45
2022-10-11T05:33:32.812Z,75.20
2022-10-11T05:36:15.521Z,75.49
2022-10-11T05:38:45.263Z,75.58
2022-10-11T05:41:29.448Z,75.32
2022-10-11T05:43:58.210Z,75.77
2022-10-11T05:46:40.707Z,75.58
2022-10-11T05:49:09.658Z,75.74
2022-10-11T05:51:39.046Z,75.73
2022-10-11T05:54:08.393Z,76.07
2022-10-11T05:56:37.164Z,75.84
2022-10-11T05:59:19.495Z,76.08
2022-10-11T06:01:49.745Z,76.17
2022-10-11T06:04:36.433Z,76.15
2022-10-11T06:07:06.525Z,76.12
2022-10-11T06:09:36.059Z,76.10
2022-10-11T06:12:18.757Z,76.22
2022-10-11T06:14:47.877Z,76.24
2022-10-11T06:17:30.533Z,76.57
2022-10-11T06:19:59.509Z,76.35
2022-10-11T06:22:41.915Z,76.51
2022-10-11T06:25:24.329Z,76.84
2022-10-11T06:28:07.199Z,76.65
2022-10-11T06:30:36.052Z,76.70
2022-10-11T06:33:19.343Z,76.94
2022-10-11T06:35:48.558Z,77.04
2022-10-11T06:38:31.018Z,76.99
2022-10-11T06:41:18.421Z,77.30
2022-10-11T06:44:01.270Z,77.36
2022-10-11T06:46:33.512Z,77.25
2022-10-11T06:49:02.388Z,77.45
2022-10-11T06:51:44.771Z,77.39
2022-10-11T06:54:27.880Z,77.39
2022-10-11T06:56:57.098Z,77.57
2022-10-11T06:59:39.573Z,77.34
2022-10-11T07:02:10.798Z,77.29
2022-10-11T07:04:53.270Z,77.44
2022-10-11T07:07:35.571Z,77.65
2022-10-11T07:10:18.245Z,77.43
2022-10-11T07:13:00.783Z,77.36
2022-10-11T07:15:43.579Z,77.18
2022-10-11T07:18:12.521Z,77.12
2022-10-11T07:20:55.424Z,77.17
2022-10-11T07:23:38.490Z,77.04
2022-10-11T07:26:09.573Z,77.10
2022-10-11T07:28:52.622Z,77.15
2022-10-11T07:31:24.510Z,77.08
2022-10-11T07:33:54.769Z,76.97
2022-10-11T07:36:24.545Z,76.85
2022-10-11T07:38:53.543Z,77.07
2022-10-11T07:41:22.620Z,76.77
2022-10-11T07:44:05.331Z,77.12
2022-10-11T07:46:47.769Z,76.70
2022-10-11T07:49:17.395Z,76.72
2022-10-11T07:51:46.234Z,76.43
2022-10-11T07:54:28.550Z,76.58
2022-10-11T07:56:57.584Z,76.18
2022-10-11T07:59:26.535Z,76.18
2022-10-11T08:01:55.743Z,76.06
2022-10-11T08:04:24.398Z,76.07
2022-10-11T08:06:53.619Z,76.26
2022-10-11T08:09:36.215Z,75.70
2022-10-11T08:12:18.668Z,75.74
2022-10-11T08:14:47.650Z,75.83
2022-10-11T08:17:16.565Z,75.97
2022-10-11T08:19:45.483Z,75.72
2022-10-11T08:22:14.248Z,75.76
2022-10-11T08:24:43.544Z,75.66
2022-10-11T08:27:26.636Z,75.78
2022-10-11T08:30:10.126Z,75.40
2022-10-11T08:32:39.327Z,75.47
2022-10-11T08:35:22.066Z,74.90
2022-10-11T08:37:51.480Z,74.95
2022-10-11T08:40:35.379Z,74.85
2022-10-11T08:43:08.532Z,74.81
2022-10-11T08:45:54.864Z,74.40
2022-10-11T08:48:41.844Z,73.94
2022-10-11T08:51:30.841Z,73.72
2022-10-11T08:54:32.834Z,73.79
2022-10-11T08:57:06.075Z,73.51
2022-10-11T09:00:14.902Z,73.81
2022-10-11T09:03:13.175Z,73.20
2022-10-11T09:06:04.748Z,72.47
2022-10-11T09:09:07.961Z,73.19
2022-10-11T09:12:03.496Z,72.13
2022-10-11T09:14:54.351Z,71.60
2022-10-11T09:17:58.818Z,70.45
2022-10-11T09:20:53.333Z,70.48
2022-10-11T09:23:47.622Z,71.31
2022-10-11T09:26:25.680Z,69.92
2022-10-11T09:29:07.196Z,69.94
2022-10-11T09:31:36.392Z,69.86
2022-10-11T09:34:20.419Z,69.01
2022-10-11T09:37:15.028Z,68.07
2022-10-11T09:39:55.714Z,66.60
2022-10-11T09:42:24.863Z,66.80
2022-10-11T09:44:55.293Z,67.22
2022-10-11T09:47:27.552Z,67.54
2022-10-11T09:50:30.967Z,67.61
2022-10-11T09:53:08.046Z,67.62
2022-10-11T09:55:39.601Z,66.53
2022-10-11T09:58:32.425Z,66.46
2022-10-11T10:01:25.766Z,66.81
2022-10-11T10:04:17.149Z,67.38
2022-10-11T10:06:46.705Z,67.10
2022-10-11T10:09:31.103Z,66.85
2022-10-11T10:12:22.870Z,67.61
2022-10-11T10:15:02.529Z,67.26
2022-10-11T10:17:53.438Z,66.87
2022-10-11T10:20:36.955Z,66.42
2022-10-11T10:23:28.143Z,67.20
2022-10-11T10:26:20.928Z,66.76
2022-10-11T10:29:16.910Z,66.79
2022-10-11T10:32:14.181Z,66.43
2022-10-11T10:35:16.991Z,65.20
2022-10-11T10:37:59.685Z,65.48
2022-10-11T10:40:51.343Z,65.28
2022-10-11T10:43:24.320Z,65.49
2022-10-11T10:46:12.109Z,65.68
2022-10-11T10:49:18.714Z,65.19
2022-10-11T10:51:53.187Z,65.36
2022-10-11T10:54:39.110Z,65.41
2022-10-11T10:57:47.050Z,65.62
2022-10-11T11:00:15.804Z,65.10
2022-10-11T11:02:51.578Z,65.40
2022-10-11T11:05:40.216Z,65.52
2022-10-11T11:08:38.052Z,66.14
2022-10-11T11:11:58.068Z,66.25
2022-10-11T11:14:46.394Z,65.11
2022-10-11T11:17:40.803Z,64.48
2022-10-11T11:20:42.445Z,64.34
2022-10-11T11:23:33.237Z,64.33
2022-10-11T11:26:10.019Z,64.14
2022-10-11T11:29:04.306Z,64.06
2022-10-11T11:31:59.463Z,64.45
2022-10-11T11:34:47.076Z,64.29
2022-10-11T11:37:34.761Z,64.00
2022-10-11T11:40:23.098Z,63.87
2022-10-11T11:43:36.240Z,63.55
2022-10-11T11:46:29.150Z,63.46
2022-10-11T11:49:03.692Z,63.12
2022-10-11T11:51:47.703Z,63.22
2022-10-11T11:54:45.432Z,63.37
2022-10-11T11:57:26.626Z,63.00
2022-10-11T12:00:06.073Z,63.37
2022-10-11T12:02:40.396Z,63.56
2022-10-11T12:05:30.775Z,62.97
2022-10-11T12:08:18.984Z,62.18
2022-10-11T12:10:51.154Z,62.59
2022-10-11T12:13:39.977Z,62.11
2022-10-11T12:16:23.085Z,62.48
2022-10-11T12:19:06.112Z,62.18
2022-10-11T12:22:40.467Z,61.98
2022-10-11T12:25:09.579Z,62.24
2022-10-11T12:27:44.645Z,61.50
2022-10-11T12:30:51.006Z,61.57
2022-10-11T12:33:33.487Z,61.83
2022-10-11T12:36:22.177Z,61.52
2022-10-11T12:39:23.400Z,61.08
2022-10-11T12:42:06.032Z,61.22
2022-10-11T12:44:35.029Z,61.29
2022-10-11T12:47:48.367Z,61.31
2022-10-11T12:50:28.671Z,61.33
2022-10-11T12:53:36.898Z,61.32
2022-10-11T12:56:27.369Z,59.61
2022-10-11T12:59:06.554Z,60.68
2022-10-11T13:01:48.700Z,59.43
2022-10-11T13:04:21.894Z,59.59
2022-10-11T13:06:54.985Z,59.11
2022-10-11T13:09:32.648Z,59.61
2022-10-11T13:12:13.879Z,58.80
2022-10-11T13:15:07.167Z,58.99
2022-10-11T13:17:41.244Z,57.79
2022-10-11T13:20:31.746Z,58.14
2022-10-11T13:23:01.429Z,57.92
2022-10-11T13:25:38.228Z,57.97
2022-10-11T13:28:22.294Z,57.15
2022-10-11T13:30:56.827Z,57.53
2022-10-11T13:33:43.032Z,58.39
2022-10-11T13:36:20.829Z,58.49
2022-10-11T13:39:01.351Z,58.64
2022-10-11T13:41:43.853Z,57.65
2022-10-11T13:44:12.837Z,56.76
2022-10-11T13:46:42.592Z,56.98
2022-10-11T13:49:27.130Z,56.54
2022-10-11T13:52:02.573Z,57.65
2022-10-11T13:55:10.078Z,57.71
2022-10-11T13:57:46.789Z,56.90
2022-10-11T14:00:15.497Z,56.45
2022-10-11T14:02:51.347Z,56.15
2022-10-11T14:05:34.897Z,55.99
2022-10-11T14:08:20.927Z,55.45
2022-10-11T14:11:06.623Z,55.49
2022-10-11T14:13:39.465Z,55.47
2022-10-11T14:16:21.796Z,56.16
2022-10-11T14:19:10.749Z,56.23
2022-10-11T14:21:54.426Z,56.49
2022-10-11T14:24:23.628Z,56.59
2022-10-11T14:26:54.950Z,57.05
2022-10-11T14:29:26.867Z,57.20
2022-10-11T14:32:03.374Z,57.36
2022-10-11T14:34:48.136Z,57.39
2022-10-11T14:37:18.510Z,57.57
2022-10-11T14:39:48.248Z,57.35
2022-10-11T14:42:18.067Z,57.53
2022-10-11T14:45:01.128Z,57.68
2022-10-11T14:47:29.990Z,57.83
2022-10-11T14:49:59.031Z,57.58
2022-10-11T14:52:28.323Z,57.52
2022-10-11T14:54:57.149Z,56.92
2022-10-11T14:57:39.434Z,56.13
2022-10-11T15:00:19.072Z,56.36
2022-10-11T15:02:47.622Z,56.30
2022-10-11T15:05:16.656Z,56.43
2022-10-11T15:07:45.560Z,56.11
2022-10-11T15:10:22.419Z,56.50
2022-10-11T15:12:52.953Z,56.50
2022-10-11T15:15:37.853Z,56.38
2022-10-11T15:18:08.425Z,56.49
2022-10-11T15:20:52.260Z,56.77
2022-10-11T15:23:20.995Z,56.89
2022-10-11T15:26:03.674Z,56.93
2022-10-11T15:28:48.052Z,57.04
2022-10-11T15:31:17.868Z,56.97
2022-10-11T15:33:46.701Z,57.24
2022-10-11T15:36:19.802Z,57.26
2022-10-11T15:39:02.155Z,57.22
2022-10-11T15:41:44.866Z,57.23
2022-10-11T15:44:13.658Z,57.18
2022-10-11T15:46:56.305Z,57.20
2022-10-11T15:49:25.073Z,57.42
2022-10-11T15:51:54.406Z,57.35
2022-10-11T15:54:36.708Z,57.51
2022-10-11T15:57:19.521Z,57.39
2022-10-11T16:00:02.386Z,57.73
2022-10-11T16:02:41.151Z,57.92
2022-10-11T16:05:25.915Z,58.04
2022-10-11T16:07:55.118Z,58.03
2022-10-11T16:10:24.310Z,58.04
2022-10-11T16:12:53.142Z,58.29
2022-10-11T16:15:38.939Z,58.35
2022-10-11T16:18:22.593Z,58.27
2022-10-11T16:20:52.654Z,58.32
2022-10-11T16:23:22.679Z,58.49
2022-10-11T16:25:59.348Z,58.63
2022-10-11T16:28:42.288Z,58.34
2022-10-11T16:31:14.945Z,58.76
2022-10-11T16:33:47.905Z,58.92
2022-10-11T16:36:41.023Z,58.81
2022-10-11T16:39:17.267Z,58.86
2022-10-11T16:41:47.504Z,58.51
2022-10-11T16:44:19.458Z,58.46
2022-10-11T16:46:49.291Z,58.81
2022-10-11T16:49:26.099Z,58.63
2022-10-11T16:51:59.447Z,59.04
2022-10-11T16:54:30.450Z,59.02
2022-10-11T16:57:00.030Z,59.21
2022-10-11T16:59:28.980Z,59.04
2022-10-11T17:01:58.322Z,59.39
2022-10-11T17:04:27.143Z,59.16
2022-10-11T17:06:56.705Z,59.33
2022-10-11T17:09:48.952Z,59.47
2022-10-11T17:12:32.261Z,59.46
2022-10-11T17:15:01.339Z,59.53
2022-10-11T17:17:43.667Z,59.76
2022-10-11T17:20:12.142Z,59.60
2022-10-11T17:22:41.092Z,59.63
2022-10-11T17:25:10.002Z,60.01
2022-10-11T17:27:38.954Z,59.91
2022-10-11T17:30:08.676Z,59.61
2022-10-11T17:32:53.059Z,59.54
2022-10-11T17:35:35.434Z,59.85
2022-10-11T17:38:20.198Z,60.16
2022-10-11T17:41:00.357Z,59.95
2022-10-11T17:43:43.005Z,59.98
2022-10-11T17:46:15.072Z,60.07
2022-10-11T17:48:46.111Z,60.29
2022-10-11T17:51:28.626Z,60.70
2022-10-11T17:53:57.837Z,60.83
2022-10-11T17:56:41.651Z,61.03
2022-10-11T17:59:27.695Z,60.96
2022-10-11T18:01:56.791Z,60.99
2022-10-11T18:04:29.566Z,61.04
2022-10-11T18:06:58.464Z,61.19
2022-10-11T18:09:27.558Z,61.29
2022-10-11T18:11:56.052Z,61.30
2022-10-11T18:14:24.949Z,61.49
2022-10-11T18:17:07.195Z,61.52
2022-10-11T18:19:49.690Z,61.77
2022-10-11T18:22:18.678Z,61.68
2022-10-11T18:24:48.410Z,61.84
2022-10-11T18:27:17.226Z,61.86
2022-10-11T18:29:45.883Z,62.10
2022-10-11T18:32:17.434Z,61.99
2022-10-11T18:34:46.617Z,62.31
2022-10-11T18:37:30.094Z,62.25
2022-10-11T18:39:58.922Z,62.35
2022-10-11T18:42:27.735Z,62.43
2022-10-11T18:44:57.266Z,62.48
2022-10-11T18:47:26.175Z,62.79
2022-10-11T18:49:55.238Z,62.64
2022-10-11T18:52:23.662Z,62.92
2022-10-11T18:54:52.351Z,62.91
2022-10-11T18:57:21.355Z,62.89
2022-10-11T18:59:50.849Z,63.04
2022-10-11T19:02:19.687Z,63.01
2022-10-11T19:04:52.934Z,63.24
2022-10-11T19:07:35.865Z,63.41
2022-10-11T19:10:05.054Z,63.42
2022-10-11T19:12:34.044Z,63.46
2022-10-11T19:15:02.726Z,63.57
2022-10-11T19:17:36.425Z,63.42
2022-10-11T19:20:09.230Z,63.50
2022-10-11T19:22:38.330Z,63.53
2022-10-11T19:25:07.859Z,63.44
2022-10-11T19:27:36.854Z,63.66
2022-10-11T19:30:06.350Z,63.61
2022-10-11T19:32:35.432Z,63.65
2022-10-11T19:35:04.531Z,63.97
2022-10-11T19:37:47.034Z,64.04
2022-10-11T19:40:16.157Z,64.20
2022-10-11T19:42:45.772Z,63.98
2022-10-11T19:45:14.460Z,64.24
2022-10-11T19:47:56.684Z,64.22
2022-10-11T19:50:25.279Z,64.56
2022-10-11T19:52:54.077Z,64.74
2022-10-11T19:55:23.018Z,64.66
2022-10-11T19:57:52.055Z,64.69
2022-10-11T20:00:21.149Z,64.81
2022-10-11T20:02:49.694Z,64.56
2022-10-11T20:05:18.253Z,64.80
2022-10-11T20:07:47.002Z,64.83
2022-10-11T20:10:15.558Z,64.86
2022-10-11T20:12:57.935Z,65.18
2022-10-11T20:15:26.701Z,64.75
2022-10-11T20:17:55.212Z,65.24
2022-10-11T20:20:24.095Z,65.15
2022-10-11T20:22:53.855Z,64.94
2022-10-11T20:25:22.578Z,64.97
2022-10-11T20:27:51.095Z,64.94
2022-10-11T20:30:20.065Z,64.72
2022-10-11T20:32:48.700Z,64.95
2022-10-11T20:35:31.523Z,65.13
2022-10-11T20:38:00.124Z,65.32
2022-10-11T20:40:28.899Z,65.19
2022-10-11T20:42:57.606Z,65.28
2022-10-11T20:45:26.457Z,65.28
2022-10-11T20:47:54.930Z,65.60
2022-10-11T20:50:23.662Z,65.45
2022-10-11T20:53:06.034Z,65.36
2022-10-11T20:55:34.677Z,65.24
2022-10-11T20:58:03.276Z,65.69
2022-10-11T21:00:31.901Z,65.58
2022-10-11T21:03:00.467Z,65.79
2022-10-11T21:05:29.589Z,66.07
2022-10-11T21:07:58.385Z,65.88
2022-10-11T21:10:28.180Z,65.95
2022-10-11T21:12:57.082Z,66.44
2022-10-11T21:15:26.343Z,66.30
2022-10-11T21:18:08.625Z,66.30
2022-10-11T21:20:51.423Z,66.17
2022-10-11T21:23:20.409Z,66.13
2022-10-11T21:26:04.521Z,66.20
2022-10-11T21:28:49.187Z,66.48
2022-10-11T21:31:20.371Z,66.52
2022-10-11T21:34:05.443Z,66.37
2022-10-11T21:36:33.980Z,66.62
2022-10-11T21:39:03.173Z,66.60
2022-10-11T21:41:32.418Z,66.83
2022-10-11T21:44:01.625Z,66.62
2022-10-11T21:49:32.805Z,67.31
2022-10-11T21:52:15.128Z,67.22
2022-10-11T21:54:57.765Z,66.94
2022-10-11T21:57:43.116Z,67.40
2022-10-11T22:00:13.395Z,66.94
2022-10-11T22:02:42.051Z,67.01
2022-10-11T22:05:10.981Z,66.98
2022-10-11T22:07:54.192Z,67.18
2022-10-11T22:10:22.906Z,67.33
2022-10-11T22:12:51.692Z,67.46
2022-10-11T22:15:35.240Z,67.53
2022-10-11T22:18:04.531Z,67.67
2022-10-11T22:20:33.660Z,67.24
2022-10-11T22:23:02.615Z,67.40
2022-10-11T22:25:34.465Z,67.54
2022-10-11T22:28:16.948Z,67.83
2022-10-11T22:30:59.380Z,67.96
2022-10-11T22:33:29.304Z,67.99
2022-10-11T22:36:00.454Z,67.94
2022-10-11T22:38:30.071Z,68.18
2022-10-11T22:41:13.031Z,67.97
2022-10-11T22:43:55.360Z,68.18
2022-10-11T22:46:24.153Z,68.07
2022-10-11T22:49:06.578Z,68.39
2022-10-11T22:51:35.298Z,68.42
2022-10-11T22:54:04.966Z,68.62
2022-10-11T22:56:47.387Z,68.81
2022-10-11T22:59:16.343Z,68.91
2022-10-11T23:01:45.229Z,68.95
2022-10-11T23:04:27.595Z,69.07
2022-10-11T23:06:57.781Z,69.10
2022-10-11T23:09:41.634Z,69.10
2022-10-11T23:12:10.760Z,69.21
2022-10-11T23:14:53.233Z,69.40
2022-10-11T23:17:35.863Z,69.20
2022-10-11T23:20:07.150Z,69.49
2022-10-11T23:22:49.505Z,69.45
2022-10-11T23:25:31.973Z,69.49
2022-10-11T23:28:02.426Z,69.69
2022-10-11T23:30:31.431Z,69.62
2022-10-11T23:33:00.386Z,69.53
2022-10-11T23:35:29.201Z,69.60
2022-10-11T23:38:11.540Z,69.38
2022-10-11T23:40:53.911Z,69.70
2022-10-11T23:43:36.339Z,69.62
2022-10-11T23:46:18.748Z,69.74
2022-10-11T23:48:47.964Z,69.82
2022-10-11T23:51:30.707Z,69.56
2022-10-11T23:54:13.160Z,69.91
2022-10-11T23:56:41.893Z,70.05
2022-10-11T23:59:24.247Z,69.95
